Terminal Aerodrome Forecast
Issued by NWS Wichita, KS

Home | Current Version | Previous Version | Graphics & Text | Print | Product List | Glossary On
Versions: 1 2 3 4 5 6 7 8 9 10 11 12 13 14 15 16 17 18 19 20 21
382
FTUS43 KICT 161722
TAFICT
TAF
KICT 161722Z 1618/1718 15016G23KT P6SM SKC
     FM170000 15011KT P6SM SCT035
     FM170200 16012KT P6SM BKN025
     FM170500 16014G20KT P6SM OVC012
     FM170900 17016G23KT 4SM -DZ OVC006
     FM171600 19018G26KT P6SM BKN020=

USA.gov is the U.S. government's official web portal to all federal, state and local government web resources and services.